Bowman, ND (58623)

8:36 AM MDT on April 25, 2015 (GMT -0600)
ND Hwy 67 & 84th St SW | | Change Station
CLOSE
Current Station
Personal Weather Station
Location: Scranton, ND
Elevation: 2900 ft
Nearby Weather Stations
Active Advisory: Special Statement

Elev 2900 ft 46.21 °N, 103.14 °W | Updated 4 minutes ago

Fog
Fog
40.6 °F
Feels Like 33 °F
N
14.0
Wind Variable Wind from SE

Today
High -- | Low -- °F
--% Chance of Precip.
Yesterday
High -- | Low -- °F
Precip. -- in
5:50 AM 7:54 PM
Waxing Crescent, 46% visible
Pressure 29.73 in
Visibility 0.5 miles
Clouds Overcast 200 ft
Windchill 33 °F
Dew Point 40 °F
Humidity 99%
Rainfall 0.00 in
Snow Depth Not available.
UV 1 out of 12
Pollen 9.10 out of 12
Air Quality Not available.
Flu Activity Regional
SPECI KHEI 251425Z AUTO 12010KT 1/2SM FG OVC002 06/05 A2973 RMK AO2 T00560050

More Conditions Fewer Conditions

Pressure 29.73 in
Visibility 0.5 miles
Clouds Overcast 200 ft
Windchill 33 °F
Dew Point 40 °F
Humidity 99%
Rainfall 0.00 in
Snow Depth Not available.
UV 1 out of 12
Pollen 9.10 out of 12
Air Quality Not available.
Flu Activity Regional
SPECI KHEI 251425Z AUTO 12010KT 1/2SM FG OVC002 06/05 A2973 RMK AO2 T00560050

More Conditions Fewer Conditions

10-Day Weather Forecast

Almanac

Astronomy

Apr. 25, 2015 Rise Set
Actual Time
Civil Twilight
Nautical Twilight
Astronomical Twilight
Moon
Length of Visible Light
Length of Day
Tomorrow will be .
, % of the Moon is Illuminated

Today's Extremes

State Highs State Lows

Community

WunderPhotos

Upload Photos

1,816,688 photos uploaded!

WunderBlogs® & News

Nearby

Air Quality

  Air Quality AQ Index Pollutant
Not available.

Snow Depth

Station Depth Elevation

Earthquake Activity

City Distance Mag. Time & Date
Minimum magnitude displayed is 2.5.

Coastal Water Temperatures

Place Temperature

Stations

Nearby Weather Stations

Station Location Temp. Windchill Dew Point Humidity Wind Precip. Elev Updated Type
                   
Special Statement
Statement as of 5:15 AM MDT on April 25, 2015

... Areas of fog over southwest North Dakota...

Areas of fog stretched from Killdeer through Dickinson and into
Hettinger. This includes the Interstate 94 corridor in southwest
North Dakota. Visibility at times will drop to around a quarter
mile. Use caution if traveling this morning.



615 am CDT Sat Apr 25 2015 /515 am MDT Sat Apr 25 2015/

... Areas of fog over southwest North Dakota...

Areas of fog stretched from Killdeer through Dickinson and into
Hettinger. This includes the Interstate 94 corridor in southwest
North Dakota. Visibility at times will drop to around a quarter
mile. Use caution if traveling this morning.



615 am CDT Sat Apr 25 2015 /515 am MDT Sat Apr 25 2015/

... Areas of fog over southwest North Dakota...

Areas of fog stretched from Killdeer through Dickinson and into
Hettinger. This includes the Interstate 94 corridor in southwest
North Dakota. Visibility at times will drop to around a quarter
mile. Use caution if traveling this morning.